createdAt,value
2017-09-29T00:00:21.290Z,22.60
2017-09-29T00:02:48.805Z,22.50
2017-09-29T00:05:16.298Z,21.40
2017-09-29T00:07:43.809Z,22.63
2017-09-29T00:10:12.070Z,22.13
2017-09-29T00:12:40.354Z,22.60
2017-09-29T00:15:08.618Z,22.73
2017-09-29T00:17:36.110Z,21.93
2017-09-29T00:20:03.621Z,22.20
2017-09-29T00:22:31.126Z,22.50
2017-09-29T00:24:58.642Z,22.80
2017-09-29T00:27:26.143Z,23.57
2017-09-29T00:29:53.658Z,23.80
2017-09-29T00:32:21.158Z,25.93
2017-09-29T00:34:48.703Z,27.13
2017-09-29T00:37:16.202Z,27.67
2017-09-29T00:39:43.706Z,27.77
2017-09-29T00:42:11.229Z,28.10
2017-09-29T00:44:38.718Z,28.20
2017-09-29T00:47:06.242Z,26.27
2017-09-29T00:49:33.743Z,25.43
2017-09-29T00:52:02.026Z,26.40
2017-09-29T00:54:30.328Z,25.00
2017-09-29T00:56:57.823Z,26.90
2017-09-29T00:59:25.338Z,27.90
2017-09-29T01:01:52.829Z,26.60
2017-09-29T01:04:20.354Z,25.27
2017-09-29T01:06:47.851Z,27.13
2017-09-29T01:09:15.343Z,27.70
2017-09-29T01:11:42.857Z,27.80
2017-09-29T01:14:10.350Z,28.63
2017-09-29T01:16:37.868Z,28.97
2017-09-29T01:19:05.361Z,27.23
2017-09-29T01:21:32.875Z,28.10
2017-09-29T01:24:00.486Z,28.67
2017-09-29T01:26:28.002Z,27.63
2017-09-29T01:28:55.502Z,29.17
2017-09-29T01:31:23.761Z,28.10
2017-09-29T01:33:51.274Z,27.67
2017-09-29T01:36:18.766Z,26.83
2017-09-29T01:38:46.297Z,28.87
2017-09-29T01:41:13.837Z,26.93
2017-09-29T01:43:42.112Z,26.50
2017-09-29T01:46:10.381Z,28.30
2017-09-29T01:48:38.662Z,28.47
2017-09-29T01:51:06.918Z,27.53
2017-09-29T01:53:34.410Z,27.83
2017-09-29T01:56:01.933Z,27.93
2017-09-29T01:58:29.426Z,27.33
2017-09-29T02:00:56.970Z,28.37
2017-09-29T02:03:25.232Z,28.10
2017-09-29T02:05:52.745Z,27.70
2017-09-29T02:08:20.234Z,26.60
2017-09-29T02:10:47.726Z,27.50
2017-09-29T02:13:16.006Z,26.00
2017-09-29T02:15:44.265Z,27.00
2017-09-29T02:18:11.783Z,25.70
2017-09-29T02:20:39.278Z,26.23
2017-09-29T02:23:07.567Z,27.20
2017-09-29T02:25:35.830Z,26.90
2017-09-29T02:28:03.330Z,25.93
2017-09-29T02:30:30.846Z,25.70
2017-09-29T02:32:58.347Z,24.30
2017-09-29T02:35:25.873Z,24.17
2017-09-29T02:37:54.129Z,23.73
2017-09-29T02:40:21.646Z,24.40
2017-09-29T02:42:49.138Z,23.57
2017-09-29T02:45:16.654Z,23.20
2017-09-29T02:47:44.150Z,23.80
2017-09-29T02:50:11.664Z,23.33
2017-09-29T02:52:39.181Z,22.43
2017-09-29T02:55:07.442Z,24.43
2017-09-29T02:57:36.845Z,24.00
2017-09-29T03:00:07.753Z,23.40
2017-09-29T03:02:38.623Z,25.10
2017-09-29T03:05:11.486Z,24.97
2017-09-29T03:07:38.998Z,25.60
2017-09-29T03:10:07.258Z,24.53
2017-09-29T03:12:34.777Z,25.00
2017-09-29T03:15:02.279Z,25.80
2017-09-29T03:17:30.545Z,23.50
2017-09-29T03:19:58.063Z,23.90
2017-09-29T03:22:25.564Z,23.47
2017-09-29T03:24:53.119Z,24.77
2017-09-29T03:27:20.622Z,24.67
2017-09-29T03:29:48.146Z,24.13
2017-09-29T03:32:15.647Z,25.50
2017-09-29T03:34:43.145Z,24.87
2017-09-29T03:37:10.662Z,23.70
2017-09-29T03:39:38.164Z,24.03
2017-09-29T03:42:05.681Z,23.60
2017-09-29T03:44:33.173Z,23.87
2017-09-29T03:47:00.685Z,22.80
2017-09-29T03:49:28.173Z,24.33
2017-09-29T03:52:08.966Z,23.80
2017-09-29T03:54:42.989Z,25.20
2017-09-29T03:57:16.079Z,24.77
2017-09-29T03:59:43.595Z,24.27
2017-09-29T04:02:11.094Z,24.83
2017-09-29T04:04:38.610Z,24.83
2017-09-29T04:07:06.110Z,23.87
2017-09-29T04:09:33.623Z,24.90
2017-09-29T04:12:01.121Z,26.67
2017-09-29T04:14:28.642Z,28.20
2017-09-29T04:16:56.140Z,27.80
2017-09-29T04:19:23.666Z,27.73
2017-09-29T04:21:51.180Z,27.20
2017-09-29T04:24:19.446Z,29.37
2017-09-29T04:26:46.967Z,27.67
2017-09-29T04:29:14.466Z,29.70
2017-09-29T04:31:42.775Z,29.03
2017-09-29T04:34:10.283Z,28.23
2017-09-29T04:36:37.818Z,27.90
2017-09-29T04:39:05.314Z,28.50
2017-09-29T04:41:32.846Z,27.47
2017-09-29T04:44:00.346Z,28.83
2017-09-29T04:46:27.849Z,28.57
2017-09-29T04:48:55.362Z,28.50
2017-09-29T04:51:22.859Z,28.57
2017-09-29T04:53:50.378Z,27.30
2017-09-29T04:56:18.641Z,27.90
2017-09-29T04:58:46.154Z,26.73
2017-09-29T05:01:13.652Z,28.83
2017-09-29T05:03:41.170Z,28.40
2017-09-29T05:06:08.670Z,29.27
2017-09-29T05:08:36.163Z,26.47
2017-09-29T05:11:03.685Z,29.33
2017-09-29T05:13:31.178Z,28.73
2017-09-29T05:15:58.703Z,28.80
2017-09-29T05:18:26.194Z,28.80
2017-09-29T05:20:53.710Z,29.63
2017-09-29T05:23:21.210Z,30.63
2017-09-29T05:25:48.710Z,29.40
2017-09-29T05:28:16.230Z,32.00
2017-09-29T05:30:43.730Z,30.27
2017-09-29T05:33:11.246Z,31.13
2017-09-29T05:35:38.738Z,29.97
2017-09-29T05:38:07.022Z,31.77
2017-09-29T05:40:34.517Z,31.63
2017-09-29T05:43:02.798Z,32.90
2017-09-29T05:45:31.062Z,31.00
2017-09-29T05:47:58.553Z,32.60
2017-09-29T05:50:26.069Z,31.73
2017-09-29T05:52:53.562Z,31.00
2017-09-29T05:55:21.077Z,32.43
2017-09-29T05:57:48.569Z,31.27
2017-09-29T06:00:16.853Z,32.70
2017-09-29T06:02:44.350Z,31.60
2017-09-29T06:05:11.881Z,32.07
2017-09-29T06:07:39.378Z,32.10
2017-09-29T06:10:06.874Z,33.40
2017-09-29T06:12:35.157Z,32.40
2017-09-29T06:15:03.444Z,31.43
2017-09-29T06:17:30.967Z,33.07
2017-09-29T06:19:58.481Z,32.00
2017-09-29T06:22:26.018Z,31.40
2017-09-29T06:24:53.519Z,32.60
2017-09-29T06:27:21.034Z,33.60
2017-09-29T06:29:48.530Z,33.60
2017-09-29T06:32:16.021Z,32.23
2017-09-29T06:34:43.558Z,32.57
2017-09-29T06:37:11.049Z,31.80
2017-09-29T06:39:39.330Z,33.33
2017-09-29T06:42:07.586Z,32.27
2017-09-29T06:44:35.106Z,32.67
2017-09-29T06:47:02.594Z,33.60
2017-09-29T06:49:30.081Z,35.17
2017-09-29T06:51:58.358Z,32.60
2017-09-29T06:54:26.626Z,32.30
2017-09-29T06:56:54.910Z,32.00
2017-09-29T06:59:23.174Z,32.50
2017-09-29T07:01:50.686Z,31.57
2017-09-29T07:04:18.173Z,32.57
2017-09-29T07:06:45.686Z,32.67
2017-09-29T07:09:13.181Z,34.13
2017-09-29T07:11:40.669Z,33.23
2017-09-29T07:14:08.257Z,33.57
2017-09-29T07:16:35.774Z,34.30
2017-09-29T07:19:03.298Z,34.17
2017-09-29T07:21:30.802Z,34.50
2017-09-29T07:23:58.326Z,34.87
2017-09-29T07:26:28.955Z,36.00
2017-09-29T07:29:00.983Z,34.70
2017-09-29T07:31:42.706Z,35.10
2017-09-29T07:34:10.230Z,33.90
2017-09-29T07:36:37.726Z,34.67
2017-09-29T07:39:05.222Z,34.20
2017-09-29T07:41:32.743Z,34.17
2017-09-29T07:44:00.238Z,33.80
2017-09-29T07:46:27.770Z,33.93
2017-09-29T07:48:55.263Z,34.10
2017-09-29T07:51:23.542Z,34.30
2017-09-29T07:53:51.802Z,32.60
2017-09-29T07:56:19.333Z,35.47
2017-09-29T07:58:46.863Z,36.60
2017-09-29T08:01:14.357Z,36.57
2017-09-29T08:03:41.874Z,38.57
2017-09-29T08:06:09.369Z,36.50
2017-09-29T08:08:36.882Z,36.67
2017-09-29T08:11:05.142Z,39.43
2017-09-29T08:13:33.431Z,38.00
2017-09-29T08:16:01.701Z,38.13
2017-09-29T08:18:29.957Z,38.37
2017-09-29T08:20:57.485Z,39.60
2017-09-29T08:23:24.978Z,38.10
2017-09-29T08:25:52.490Z,40.77
2017-09-29T08:28:20.137Z,41.53
2017-09-29T08:30:47.649Z,39.00
2017-09-29T08:33:15.141Z,39.63
2017-09-29T08:35:43.408Z,40.90
2017-09-29T08:38:11.696Z,41.03
2017-09-29T08:40:39.186Z,42.70
2017-09-29T08:43:06.701Z,38.47
2017-09-29T08:45:34.957Z,44.00
2017-09-29T08:48:02.469Z,43.10
2017-09-29T08:50:29.962Z,42.33
2017-09-29T08:52:57.454Z,42.33
2017-09-29T08:55:25.734Z,48.17
2017-09-29T08:57:53.990Z,47.10
2017-09-29T09:00:21.511Z,48.63
2017-09-29T09:02:49.005Z,47.07
2017-09-29T09:05:17.286Z,45.40
2017-09-29T09:07:45.546Z,43.57
2017-09-29T09:10:13.810Z,45.77
2017-09-29T09:12:41.321Z,44.50
2017-09-29T09:15:08.811Z,44.20
2017-09-29T09:17:36.329Z,43.37
2017-09-29T09:20:04.586Z,44.03
2017-09-29T09:22:32.862Z,43.93
2017-09-29T09:25:00.382Z,44.20
2017-09-29T09:27:27.898Z,44.70
2017-09-29T09:29:56.158Z,43.93
2017-09-29T09:32:23.652Z,43.17
2017-09-29T09:34:51.169Z,42.30
2017-09-29T09:37:18.661Z,44.00
2017-09-29T09:39:46.172Z,45.50
2017-09-29T09:42:14.435Z,42.60
2017-09-29T09:44:41.950Z,44.23
2017-09-29T09:47:09.437Z,42.73
2017-09-29T09:49:36.926Z,43.47
2017-09-29T09:52:05.214Z,44.60
2017-09-29T09:54:33.474Z,44.50
2017-09-29T09:57:00.986Z,43.00
2017-09-29T09:59:28.477Z,44.37
2017-09-29T10:01:55.993Z,45.10
2017-09-29T10:04:23.481Z,45.63
2017-09-29T10:06:50.974Z,44.37
2017-09-29T10:09:18.486Z,43.80
2017-09-29T10:11:46.000Z,45.37
2017-09-29T10:14:14.278Z,42.27
2017-09-29T10:16:42.537Z,44.87
2017-09-29T10:19:10.049Z,45.50
2017-09-29T10:21:37.540Z,45.43
2017-09-29T10:24:05.037Z,46.80
2017-09-29T10:26:33.317Z,45.50
2017-09-29T10:29:01.583Z,46.83
2017-09-29T10:31:29.862Z,47.70
2017-09-29T10:33:58.121Z,69.50
2017-09-29T10:36:26.406Z,55.83
2017-09-29T10:38:53.906Z,47.57
2017-09-29T10:41:21.397Z,43.90
2017-09-29T10:43:48.910Z,45.97
2017-09-29T10:46:16.397Z,44.50
2017-09-29T10:48:43.913Z,43.63
2017-09-29T10:51:12.170Z,43.87
2017-09-29T10:53:40.474Z,42.50
2017-09-29T10:56:08.730Z,44.53
2017-09-29T10:58:37.010Z,44.90
2017-09-29T11:01:05.269Z,43.33
2017-09-29T11:03:32.761Z,43.50
2017-09-29T11:06:01.042Z,42.50
2017-09-29T11:08:28.533Z,44.13
2017-09-29T11:10:56.046Z,44.20
2017-09-29T11:13:24.301Z,42.47
2017-09-29T11:15:51.813Z,43.60
2017-09-29T11:18:19.301Z,43.90
2017-09-29T11:20:46.793Z,45.47
2017-09-29T11:23:15.086Z,47.27
2017-09-29T11:25:42.577Z,48.03
2017-09-29T11:28:10.093Z,49.47
2017-09-29T11:30:38.349Z,49.13
2017-09-29T11:33:05.866Z,50.57
2017-09-29T11:35:33.354Z,51.50
2017-09-29T11:38:00.846Z,52.07
2017-09-29T11:40:29.127Z,54.37
2017-09-29T11:42:56.621Z,53.20
2017-09-29T11:45:24.903Z,53.60
2017-09-29T11:47:52.397Z,48.57
2017-09-29T11:50:20.677Z,52.53
2017-09-29T11:52:48.934Z,52.00
2017-09-29T11:55:17.195Z,50.77
2017-09-29T11:57:44.705Z,50.10
2017-09-29T12:00:12.217Z,50.43
2017-09-29T12:02:40.521Z,50.27
2017-09-29T12:05:08.782Z,52.97
2017-09-29T12:07:37.797Z,54.53
2017-09-29T12:10:06.059Z,53.20
2017-09-29T12:12:34.349Z,52.60
2017-09-29T12:15:02.650Z,52.87
2017-09-29T12:17:30.141Z,53.60
2017-09-29T12:19:57.653Z,50.23
2017-09-29T12:22:25.918Z,50.60
2017-09-29T12:24:54.198Z,50.67
2017-09-29T12:27:22.457Z,50.90
2017-09-29T12:29:49.974Z,51.73
2017-09-29T12:32:17.466Z,50.90
2017-09-29T12:34:44.958Z,50.07
2017-09-29T12:37:13.234Z,50.17
2017-09-29T12:39:41.494Z,49.50
2017-09-29T12:42:09.772Z,48.63
2017-09-29T12:44:38.033Z,48.53
2017-09-29T12:47:05.550Z,47.77
2017-09-29T12:49:33.036Z,49.07
2017-09-29T12:52:00.525Z,50.37
2017-09-29T12:54:28.801Z,47.37
2017-09-29T12:56:57.068Z,49.47
2017-09-29T12:59:25.353Z,48.70
2017-09-29T13:01:53.609Z,46.33
2017-09-29T13:04:21.125Z,48.13
2017-09-29T13:06:48.617Z,47.50
2017-09-29T13:09:16.110Z,49.17
2017-09-29T13:11:44.389Z,50.03
2017-09-29T13:14:12.660Z,48.20
2017-09-29T13:16:40.938Z,48.10
2017-09-29T13:19:09.195Z,49.40
2017-09-29T13:21:36.709Z,49.60
2017-09-29T13:24:04.201Z,49.13
2017-09-29T13:26:31.718Z,48.03
2017-09-29T13:28:59.212Z,47.40
2017-09-29T13:31:26.701Z,47.87
2017-09-29T13:33:54.981Z,47.00
2017-09-29T13:36:23.234Z,48.17
2017-09-29T13:38:50.745Z,45.33
2017-09-29T13:41:18.238Z,43.77
2017-09-29T13:43:45.762Z,44.17
2017-09-29T13:46:13.261Z,44.80
2017-09-29T13:48:40.785Z,43.93
2017-09-29T13:51:08.276Z,43.67
2017-09-29T13:53:35.764Z,43.70
2017-09-29T13:56:04.041Z,42.73
2017-09-29T13:58:32.297Z,44.07
2017-09-29T14:00:59.824Z,42.93
2017-09-29T14:03:27.321Z,43.73
2017-09-29T14:05:54.845Z,44.80
2017-09-29T14:08:22.346Z,43.40
2017-09-29T14:10:50.601Z,44.03
2017-09-29T14:13:18.118Z,43.80
2017-09-29T14:15:45.621Z,42.07
2017-09-29T14:18:13.137Z,43.10
2017-09-29T14:20:40.628Z,42.50
2017-09-29T14:23:08.137Z,41.80
2017-09-29T14:25:35.634Z,40.57
2017-09-29T14:28:03.126Z,42.73
2017-09-29T14:30:31.401Z,40.60
2017-09-29T14:32:59.657Z,40.50
2017-09-29T14:35:27.227Z,40.90
2017-09-29T14:37:55.498Z,40.50
2017-09-29T14:40:23.014Z,42.40
2017-09-29T14:42:50.513Z,40.40
2017-09-29T14:45:18.038Z,41.30
2017-09-29T14:47:45.529Z,42.27
2017-09-29T14:50:13.022Z,43.10
2017-09-29T14:52:41.296Z,42.27
2017-09-29T14:55:09.559Z,43.53
2017-09-29T14:57:37.832Z,44.43
2017-09-29T15:00:05.326Z,41.13
2017-09-29T15:02:32.841Z,44.00
2017-09-29T15:05:01.097Z,43.17
2017-09-29T15:07:28.614Z,45.57
2017-09-29T15:09:56.106Z,44.90
2017-09-29T15:12:23.597Z,43.30
2017-09-29T15:14:51.113Z,44.60
2017-09-29T15:17:18.605Z,45.57
2017-09-29T15:19:46.122Z,44.43
2017-09-29T15:22:13.609Z,44.37
2017-09-29T15:24:41.122Z,46.37
2017-09-29T15:27:08.623Z,44.57
2017-09-29T15:29:36.132Z,45.57
2017-09-29T15:32:03.625Z,44.97
2017-09-29T15:34:31.118Z,45.57
2017-09-29T15:36:58.630Z,43.83
2017-09-29T15:39:26.121Z,46.63
2017-09-29T15:41:53.633Z,44.20
2017-09-29T15:44:21.126Z,44.23
2017-09-29T15:46:48.639Z,45.20
2017-09-29T15:49:16.133Z,45.87
2017-09-29T15:51:43.621Z,45.10
2017-09-29T15:54:11.135Z,46.37
2017-09-29T15:56:38.626Z,45.53
2017-09-29T15:59:06.138Z,45.27
2017-09-29T16:01:33.657Z,45.40
2017-09-29T16:04:01.170Z,46.63
2017-09-29T16:06:28.662Z,44.57
2017-09-29T16:08:56.181Z,46.50
2017-09-29T16:11:23.673Z,45.27
2017-09-29T16:13:51.161Z,47.00
2017-09-29T16:16:19.437Z,44.93
2017-09-29T16:18:47.693Z,46.40
2017-09-29T16:21:15.209Z,45.57
2017-09-29T16:23:42.701Z,45.47
2017-09-29T16:26:10.228Z,45.13
2017-09-29T16:28:37.729Z,45.60
2017-09-29T16:31:05.241Z,45.00
2017-09-29T16:33:32.733Z,45.40
2017-09-29T16:36:00.222Z,43.87
2017-09-29T16:38:28.500Z,46.93
2017-09-29T16:40:56.757Z,48.00
2017-09-29T16:43:24.269Z,48.80
2017-09-29T16:45:51.762Z,47.37
2017-09-29T16:48:19.274Z,46.90
2017-09-29T16:50:46.768Z,45.63
2017-09-29T16:53:14.265Z,47.07
2017-09-29T16:55:42.542Z,44.33
2017-09-29T16:58:10.797Z,46.23
2017-09-29T17:00:38.315Z,47.30
2017-09-29T17:03:05.805Z,45.07
2017-09-29T17:05:33.317Z,46.90
2017-09-29T17:08:00.810Z,45.70
2017-09-29T17:10:28.306Z,45.77
2017-09-29T17:12:56.589Z,46.10
2017-09-29T17:15:24.850Z,46.80
2017-09-29T17:17:52.361Z,46.13
2017-09-29T17:20:19.858Z,46.10
2017-09-29T17:22:47.373Z,48.00
2017-09-29T17:25:14.865Z,46.63
2017-09-29T17:27:42.357Z,46.40
2017-09-29T17:30:10.632Z,46.80
2017-09-29T17:32:38.889Z,44.97
2017-09-29T17:35:06.403Z,45.40
2017-09-29T17:37:33.892Z,46.77
2017-09-29T17:40:01.407Z,44.90
2017-09-29T17:42:28.901Z,45.70
2017-09-29T17:44:56.394Z,46.33
2017-09-29T17:47:24.674Z,47.73
2017-09-29T17:49:52.929Z,45.50
2017-09-29T17:52:20.441Z,44.00
2017-09-29T17:54:47.933Z,47.40
2017-09-29T17:57:15.445Z,47.47
2017-09-29T17:59:42.941Z,46.00
2017-09-29T18:02:10.517Z,45.57
2017-09-29T18:04:39.562Z,46.00
2017-09-29T18:07:07.053Z,47.37
2017-09-29T18:09:34.565Z,47.40
2017-09-29T18:12:02.825Z,46.17
2017-09-29T18:14:31.221Z,48.80
2017-09-29T18:16:58.714Z,49.57
2017-09-29T18:19:26.201Z,48.70
2017-09-29T18:21:53.714Z,48.10
2017-09-29T18:24:21.205Z,49.43
2017-09-29T18:26:48.727Z,45.90
2017-09-29T18:29:16.223Z,47.40
2017-09-29T18:31:43.749Z,49.07
2017-09-29T18:34:11.241Z,49.57
2017-09-29T18:36:38.753Z,48.57
2017-09-29T18:39:06.246Z,47.07
2017-09-29T18:41:39.622Z,46.80
2017-09-29T18:44:09.801Z,49.70
2017-09-29T18:49:43.831Z,51.57
2017-09-29T18:52:11.346Z,49.47
2017-09-29T18:54:38.854Z,50.90
2017-09-29T18:57:07.114Z,49.70
2017-09-29T18:59:35.398Z,49.57
2017-09-29T19:02:02.891Z,48.20
2017-09-29T19:04:30.409Z,49.03
2017-09-29T19:06:57.902Z,50.37
2017-09-29T19:09:25.435Z,47.30
2017-09-29T19:11:53.693Z,47.93
2017-09-29T19:14:21.185Z,49.37
2017-09-29T19:16:49.465Z,47.83
2017-09-29T19:19:16.961Z,47.10
2017-09-29T19:21:44.477Z,47.53
2017-09-29T19:24:12.733Z,47.80
2017-09-29T19:26:40.246Z,47.97
2017-09-29T19:29:07.734Z,47.23
2017-09-29T19:31:35.246Z,47.70
2017-09-29T19:34:02.737Z,47.73
2017-09-29T19:36:30.230Z,47.33
2017-09-29T19:38:58.515Z,46.40
2017-09-29T19:41:26.776Z,46.87
2017-09-29T19:43:54.301Z,47.13
2017-09-29T19:46:21.789Z,45.87
2017-09-29T19:48:49.314Z,44.80
2017-09-29T19:51:16.809Z,47.80
2017-09-29T19:53:44.308Z,45.70
2017-09-29T19:56:11.817Z,46.47
2017-09-29T19:58:39.306Z,46.47
2017-09-29T20:01:07.589Z,47.90
2017-09-29T20:03:35.082Z,48.27
2017-09-29T20:06:02.598Z,47.23
2017-09-29T20:08:30.853Z,49.53
2017-09-29T20:10:58.374Z,45.57
2017-09-29T20:13:25.869Z,47.20
2017-09-29T20:15:53.361Z,49.00
2017-09-29T20:18:20.869Z,46.30
2017-09-29T20:20:48.361Z,47.97
2017-09-29T20:23:16.645Z,50.30
2017-09-29T20:25:44.145Z,51.30
2017-09-29T20:28:11.658Z,50.43
2017-09-29T20:30:39.946Z,49.53
2017-09-29T20:33:07.472Z,46.80
2017-09-29T20:35:34.981Z,47.40
2017-09-29T20:38:02.469Z,46.40
2017-09-29T20:40:29.983Z,46.67
2017-09-29T20:42:57.478Z,45.23
2017-09-29T20:45:24.989Z,46.87
2017-09-29T20:47:52.481Z,45.83
2017-09-29T20:50:20.001Z,45.23
2017-09-29T20:52:48.262Z,48.60
2017-09-29T20:55:16.567Z,47.37
2017-09-29T20:57:44.102Z,45.00
2017-09-29T21:00:12.382Z,47.40
2017-09-29T21:02:40.666Z,49.10
2017-09-29T21:05:08.927Z,47.37
2017-09-29T21:07:37.225Z,45.33
2017-09-29T21:10:04.726Z,47.20
2017-09-29T21:12:32.221Z,46.90
2017-09-29T21:15:00.534Z,47.10
2017-09-29T21:17:28.028Z,47.90
2017-09-29T21:19:55.537Z,45.70
2017-09-29T21:22:23.039Z,46.87
2017-09-29T21:24:50.561Z,45.03
2017-09-29T21:27:18.059Z,46.60
2017-09-29T21:29:45.549Z,45.80
2017-09-29T21:32:13.838Z,45.60
2017-09-29T21:34:42.097Z,46.13
2017-09-29T21:37:09.611Z,45.33
2017-09-29T21:39:37.106Z,45.23
2017-09-29T21:42:04.620Z,45.30
2017-09-29T21:44:32.125Z,46.40
2017-09-29T21:46:59.617Z,45.83
2017-09-29T21:49:27.133Z,47.57
2017-09-29T21:51:54.629Z,48.20
2017-09-29T21:54:22.146Z,44.40
2017-09-29T21:56:50.401Z,44.90
2017-09-29T21:59:17.918Z,43.87
2017-09-29T22:01:45.411Z,42.43
2017-09-29T22:04:12.897Z,44.37
2017-09-29T22:06:40.411Z,43.57
2017-09-29T22:09:07.905Z,43.70
2017-09-29T22:11:35.429Z,45.00
2017-09-29T22:14:02.921Z,45.23
2017-09-29T22:16:30.433Z,44.70
2017-09-29T22:18:57.945Z,45.23
2017-09-29T22:21:25.463Z,42.30
2017-09-29T22:23:53.026Z,44.10
2017-09-29T22:26:20.525Z,43.07
2017-09-29T22:28:48.042Z,42.43
2017-09-29T22:31:15.537Z,42.50
2017-09-29T22:33:43.050Z,42.10
2017-09-29T22:36:10.550Z,44.37
2017-09-29T22:38:38.313Z,43.70
2017-09-29T22:41:06.570Z,43.00
2017-09-29T22:43:34.061Z,42.30
2017-09-29T22:46:01.575Z,41.90
2017-09-29T22:48:29.068Z,43.23
2017-09-29T22:50:56.582Z,42.97
2017-09-29T22:53:24.072Z,43.50
2017-09-29T22:55:51.585Z,43.23
2017-09-29T22:58:19.085Z,42.50
2017-09-29T23:00:46.573Z,42.87
2017-09-29T23:03:14.853Z,42.43
2017-09-29T23:05:42.355Z,42.53
2017-09-29T23:08:09.874Z,41.17
2017-09-29T23:10:38.134Z,42.37
2017-09-29T23:13:05.649Z,42.97
2017-09-29T23:15:33.137Z,42.47
2017-09-29T23:18:00.629Z,43.30
2017-09-29T23:20:28.906Z,42.20
2017-09-29T23:22:58.000Z,43.17
2017-09-29T23:25:25.525Z,42.67
2017-09-29T23:27:53.024Z,40.53
2017-09-29T23:30:21.305Z,42.40
2017-09-29T23:32:48.810Z,42.70
2017-09-29T23:35:16.311Z,41.17
2017-09-29T23:37:44.589Z,42.10
2017-09-29T23:40:12.854Z,42.60
2017-09-29T23:42:40.373Z,43.80
2017-09-29T23:45:07.870Z,43.07
2017-09-29T23:47:35.389Z,40.10
2017-09-29T23:50:02.882Z,41.20
2017-09-29T23:52:31.137Z,43.57
2017-09-29T23:54:58.650Z,42.67
2017-09-29T23:57:26.141Z,43.90
2017-09-29T23:59:53.657Z,43.77
